createdAt,value
2018-06-28T04:00:59.682Z,123.75
2018-06-28T04:01:59.470Z,129.38
2018-06-28T04:03:52.175Z,135.00
2018-06-28T04:04:52.042Z,135.00
2018-06-28T04:06:44.722Z,140.63
2018-06-28T04:07:44.618Z,140.63
2018-06-28T04:09:37.330Z,146.25
2018-06-28T04:10:37.195Z,151.88
2018-06-28T04:12:29.876Z,157.50
2018-06-28T04:13:29.771Z,157.50
2018-06-28T04:15:22.470Z,163.13
2018-06-28T04:16:22.354Z,168.75
2018-06-28T04:18:15.040Z,174.38
2018-06-28T04:19:14.933Z,174.38
2018-06-28T04:21:07.789Z,180.00
2018-06-28T04:22:07.505Z,185.63
2018-06-28T04:24:00.179Z,191.25
2018-06-28T04:25:00.075Z,191.25
2018-06-28T04:26:52.938Z,196.88
2018-06-28T04:27:52.654Z,196.88
2018-06-28T04:29:45.336Z,202.50
2018-06-28T04:30:45.241Z,208.13
2018-06-28T04:32:37.945Z,213.75
2018-06-28T04:33:37.805Z,213.75
2018-06-28T04:35:30.496Z,219.38
2018-06-28T04:36:30.388Z,225.00
2018-06-28T04:38:23.104Z,230.63
2018-06-28T04:39:22.985Z,230.63
2018-06-28T04:41:15.656Z,236.25
2018-06-28T04:42:15.549Z,241.88
2018-06-28T04:44:08.270Z,241.88
2018-06-28T04:45:08.130Z,247.50
2018-06-28T04:47:00.817Z,253.13
2018-06-28T04:48:00.717Z,253.13
2018-06-28T04:49:53.493Z,258.75
2018-06-28T04:50:53.296Z,264.38
2018-06-28T04:52:45.991Z,270.00
2018-06-28T04:53:45.881Z,270.00
2018-06-28T04:55:38.579Z,275.63
2018-06-28T04:56:38.456Z,281.25
2018-06-28T04:58:31.138Z,281.25
2018-06-28T04:59:31.044Z,286.88
2018-06-28T05:01:23.759Z,292.50
2018-06-28T05:02:23.618Z,292.50
2018-06-28T05:04:16.299Z,298.13
2018-06-28T05:05:16.188Z,298.13
2018-06-28T05:07:08.962Z,303.75
2018-06-28T05:08:08.759Z,303.75
2018-06-28T05:10:01.460Z,309.38
2018-06-28T05:11:01.342Z,315.00
2018-06-28T05:12:54.072Z,315.00
2018-06-28T05:13:53.931Z,320.63
2018-06-28T05:15:46.681Z,326.25
2018-06-28T05:16:46.605Z,326.25
2018-06-28T05:18:39.239Z,331.88
2018-06-28T05:19:39.104Z,331.88
2018-06-28T05:21:31.785Z,337.50
2018-06-28T05:22:31.684Z,343.13
2018-06-28T05:24:24.537Z,343.13
2018-06-28T05:25:24.256Z,348.75
2018-06-28T05:27:16.943Z,348.75
2018-06-28T05:28:16.839Z,354.38
2018-06-28T05:30:09.552Z,354.38
2018-06-28T05:31:09.419Z,360.00
2018-06-28T05:33:02.102Z,360.00
2018-06-28T05:34:01.999Z,365.63
2018-06-28T05:35:54.727Z,371.25
2018-06-28T05:36:54.604Z,371.25
2018-06-28T05:38:47.286Z,376.88
2018-06-28T05:39:47.186Z,382.50
2018-06-28T05:41:39.894Z,382.50
2018-06-28T05:42:39.760Z,388.13
2018-06-28T05:44:32.477Z,382.50
2018-06-28T05:45:32.344Z,388.13
2018-06-28T05:47:25.196Z,388.13
2018-06-28T05:48:25.065Z,393.75
2018-06-28T05:50:18.237Z,399.38
2018-06-28T05:51:18.141Z,399.38
2018-06-28T05:53:10.851Z,405.00
2018-06-28T05:54:10.782Z,405.00
2018-06-28T05:56:03.414Z,410.63
2018-06-28T05:57:03.307Z,410.63
2018-06-28T05:58:56.019Z,416.25
2018-06-28T05:59:55.886Z,416.25
2018-06-28T06:01:48.575Z,421.88
2018-06-28T06:02:48.468Z,427.50
2018-06-28T06:04:42.001Z,433.13
2018-06-28T06:05:41.048Z,433.13
2018-06-28T06:07:33.732Z,444.38
2018-06-28T06:08:33.630Z,450.00
2018-06-28T06:10:26.391Z,478.13
2018-06-28T06:11:26.212Z,506.25
2018-06-28T06:13:18.947Z,635.63
2018-06-28T06:14:18.785Z,821.25
2018-06-28T06:16:11.508Z,2160.00
2018-06-28T06:17:11.381Z,2688.75
2018-06-28T06:19:04.067Z,2958.75
2018-06-28T06:20:03.968Z,3099.38
2018-06-28T06:21:56.698Z,3195.00
2018-06-28T06:22:56.564Z,3105.00
2018-06-28T06:24:49.311Z,3155.63
2018-06-28T06:25:49.199Z,3211.88
2018-06-28T06:27:41.992Z,3088.13
2018-06-28T06:28:41.856Z,3268.13
2018-06-28T06:30:34.634Z,3436.88
2018-06-28T06:31:34.509Z,3448.13
2018-06-28T06:33:27.305Z,3481.88
2018-06-28T06:34:27.213Z,3391.88
2018-06-28T06:36:20.014Z,3504.38
2018-06-28T06:37:19.780Z,3639.38
2018-06-28T06:39:12.548Z,3425.63
2018-06-28T06:40:12.437Z,3639.38
2018-06-28T06:42:05.266Z,3673.13
2018-06-28T06:43:05.104Z,3543.75
2018-06-28T06:44:57.841Z,3746.25
2018-06-28T06:45:57.730Z,3774.38
2018-06-28T06:47:50.452Z,3898.13
2018-06-28T06:48:50.442Z,4010.63
2018-06-28T06:50:43.119Z,3937.50
2018-06-28T06:51:43.003Z,3903.75
2018-06-28T06:53:35.721Z,3976.88
2018-06-28T06:54:35.637Z,3982.50
2018-06-28T06:56:28.387Z,4370.63
2018-06-28T06:57:28.275Z,4241.25
2018-06-28T06:59:20.990Z,3993.75
2018-06-28T07:00:20.911Z,4016.25
2018-06-28T07:02:13.656Z,4190.63
2018-06-28T07:03:13.549Z,4190.63
2018-06-28T07:05:06.266Z,4117.50
2018-06-28T07:06:06.185Z,4252.50
2018-06-28T07:07:58.936Z,4111.88
2018-06-28T07:08:58.822Z,4286.25
2018-06-28T07:10:51.619Z,4398.75
2018-06-28T07:11:51.533Z,4303.13
2018-06-28T07:13:44.274Z,4376.25
2018-06-28T07:14:44.174Z,4483.13
2018-06-28T07:16:36.894Z,4381.88
2018-06-28T07:17:36.812Z,4410.00
2018-06-28T07:19:29.573Z,4528.13
2018-06-28T07:20:29.466Z,4404.38
2018-06-28T07:22:22.179Z,4522.50
2018-06-28T07:23:22.100Z,4460.63
2018-06-28T07:25:14.841Z,4072.50
2018-06-28T07:26:14.742Z,4038.75
2018-06-28T07:28:07.467Z,4201.88
2018-06-28T07:29:07.389Z,4460.63
2018-06-28T07:31:00.133Z,4674.38
2018-06-28T07:32:00.028Z,4837.50
2018-06-28T07:33:52.751Z,4545.00
2018-06-28T07:34:52.678Z,4421.25
2018-06-28T07:36:45.428Z,4483.13
2018-06-28T07:37:45.320Z,4815.00
2018-06-28T07:39:38.051Z,4888.13
2018-06-28T07:40:37.970Z,4831.88
2018-06-28T07:42:30.766Z,5298.75
2018-06-28T07:43:30.619Z,5141.25
2018-06-28T07:45:23.334Z,5191.88
2018-06-28T07:46:23.270Z,4905.00
2018-06-28T07:48:16.015Z,4736.25
2018-06-28T07:49:15.908Z,4376.25
2018-06-28T07:51:08.634Z,4404.38
2018-06-28T07:52:08.545Z,4483.13
2018-06-28T07:54:01.297Z,4342.50
2018-06-28T07:55:01.191Z,4539.38
2018-06-28T07:56:54.054Z,4601.25
2018-06-28T07:57:53.860Z,4477.50
2018-06-28T07:59:46.609Z,4612.50
2018-06-28T08:00:46.500Z,4753.13
2018-06-28T08:02:39.303Z,5006.25
2018-06-28T08:03:39.152Z,5383.13
2018-06-28T08:05:31.905Z,5017.50
2018-06-28T08:06:31.795Z,4950.00
2018-06-28T08:08:24.522Z,4657.50
2018-06-28T08:09:24.444Z,4747.50
2018-06-28T08:11:17.197Z,4837.50
2018-06-28T08:12:17.088Z,4781.25
2018-06-28T08:14:09.813Z,4831.88
2018-06-28T08:15:09.737Z,4792.50
2018-06-28T08:17:02.493Z,4837.50
2018-06-28T08:18:02.399Z,4826.25
2018-06-28T08:19:55.122Z,4483.13
2018-06-28T08:20:55.040Z,4657.50
2018-06-28T08:22:47.793Z,4826.25
2018-06-28T08:23:47.683Z,4848.75
2018-06-28T08:25:40.404Z,4415.63
2018-06-28T08:26:40.328Z,4376.25
2018-06-28T08:28:33.082Z,4663.13
2018-06-28T08:29:32.974Z,4590.00
2018-06-28T08:31:26.190Z,4803.75
2018-06-28T08:32:26.112Z,4696.88
2018-06-28T08:34:18.857Z,4500.00
2018-06-28T08:35:18.758Z,4432.50
2018-06-28T08:37:11.991Z,4325.63
2018-06-28T08:38:11.909Z,1721.25
2018-06-28T08:40:04.658Z,1951.88
2018-06-28T08:41:04.556Z,4275.00
2018-06-28T08:42:57.281Z,4241.25
2018-06-28T08:43:57.194Z,4269.38
2018-06-28T08:45:50.051Z,4365.00
2018-06-28T08:46:49.944Z,4117.50
2018-06-28T08:48:42.726Z,3144.38
2018-06-28T08:49:42.649Z,1963.13
2018-06-28T08:51:35.355Z,1080.00
2018-06-28T08:52:35.242Z,961.88
2018-06-28T08:54:27.974Z,793.13
2018-06-28T08:55:27.901Z,748.13
2018-06-28T08:57:20.734Z,697.50
2018-06-28T08:58:20.597Z,669.38
2018-06-28T09:00:13.312Z,658.13
2018-06-28T09:01:13.223Z,652.50
2018-06-28T09:03:05.963Z,630.00
2018-06-28T09:04:05.846Z,624.38
2018-06-28T09:05:58.562Z,618.75
2018-06-28T09:06:58.470Z,624.38
2018-06-28T09:08:51.212Z,635.63
2018-06-28T09:09:51.089Z,630.00
2018-06-28T09:11:43.791Z,652.50
2018-06-28T09:12:43.705Z,691.88
2018-06-28T09:14:36.424Z,708.75
2018-06-28T09:15:36.312Z,703.13
2018-06-28T09:17:29.129Z,646.88
2018-06-28T09:18:29.084Z,596.25
2018-06-28T09:20:21.804Z,585.00
2018-06-28T09:21:21.687Z,613.13
2018-06-28T09:23:14.352Z,675.00
2018-06-28T09:24:14.310Z,663.75
2018-06-28T09:26:06.990Z,630.00
2018-06-28T09:27:06.865Z,658.13
2018-06-28T09:28:59.565Z,646.88
2018-06-28T09:29:59.469Z,630.00
2018-06-28T09:31:52.203Z,691.88
2018-06-28T09:32:52.089Z,714.38
2018-06-28T09:34:44.785Z,810.00
2018-06-28T09:35:44.752Z,832.50
2018-06-28T09:37:37.420Z,759.38
2018-06-28T09:38:37.304Z,821.25
2018-06-28T09:40:29.998Z,939.38
2018-06-28T09:41:29.902Z,939.38
2018-06-28T09:43:22.621Z,855.00
2018-06-28T09:44:22.506Z,708.75
2018-06-28T09:46:15.203Z,624.38
2018-06-28T09:47:15.110Z,618.75
2018-06-28T09:49:07.839Z,641.25
2018-06-28T09:50:07.720Z,669.38
2018-06-28T09:52:00.418Z,697.50
2018-06-28T09:53:00.322Z,770.63
2018-06-28T09:54:53.076Z,675.00
2018-06-28T09:55:52.927Z,545.63
2018-06-28T09:57:45.619Z,624.38
2018-06-28T09:58:45.528Z,697.50
2018-06-28T10:00:38.260Z,607.50
2018-06-28T10:01:38.134Z,568.13
2018-06-28T10:03:30.837Z,630.00
2018-06-28T10:04:30.743Z,658.13
2018-06-28T10:06:23.483Z,736.88
2018-06-28T10:07:23.350Z,686.25
2018-06-28T10:09:16.044Z,573.75
2018-06-28T10:10:15.956Z,607.50
2018-06-28T10:12:08.676Z,585.00
2018-06-28T10:13:08.594Z,585.00
2018-06-28T10:15:01.270Z,590.63
2018-06-28T10:16:01.163Z,590.63
2018-06-28T10:17:53.887Z,618.75
2018-06-28T10:18:53.761Z,635.63
2018-06-28T10:20:46.465Z,641.25
2018-06-28T10:21:46.367Z,641.25
2018-06-28T10:23:39.093Z,652.50
2018-06-28T10:24:39.039Z,703.13
2018-06-28T10:26:31.676Z,765.00
2018-06-28T10:27:31.587Z,714.38
2018-06-28T10:29:24.312Z,630.00
2018-06-28T10:30:24.191Z,697.50
2018-06-28T10:32:16.888Z,663.75
2018-06-28T10:33:16.788Z,630.00
2018-06-28T10:35:09.658Z,697.50
2018-06-28T10:36:09.470Z,736.88
2018-06-28T10:38:02.221Z,675.00
2018-06-28T10:39:02.083Z,551.25
2018-06-28T10:40:54.852Z,478.13
2018-06-28T10:41:54.688Z,517.50
2018-06-28T10:43:47.387Z,511.88
2018-06-28T10:44:47.288Z,506.25
2018-06-28T10:46:40.012Z,517.50
2018-06-28T10:47:39.893Z,523.13
2018-06-28T10:49:32.590Z,540.00
2018-06-28T10:50:32.547Z,556.88
2018-06-28T10:52:25.220Z,517.50
2018-06-28T10:53:25.112Z,506.25
2018-06-28T10:55:17.841Z,517.50
2018-06-28T10:56:17.725Z,517.50
2018-06-28T10:58:10.429Z,523.13
2018-06-28T10:59:10.308Z,528.75
2018-06-28T11:01:03.011Z,534.38
2018-06-28T11:02:02.915Z,540.00
2018-06-28T11:03:55.633Z,545.63
2018-06-28T11:04:55.509Z,545.63
2018-06-28T11:06:48.208Z,506.25
2018-06-28T11:07:48.121Z,489.38
2018-06-28T11:09:40.863Z,466.88
2018-06-28T11:10:40.757Z,495.00
2018-06-28T11:12:33.438Z,528.75
2018-06-28T11:13:33.339Z,545.63
2018-06-28T11:15:26.076Z,523.13
2018-06-28T11:16:25.969Z,528.75
2018-06-28T11:18:18.764Z,523.13
2018-06-28T11:19:18.665Z,528.75
2018-06-28T11:21:11.380Z,523.13
2018-06-28T11:22:11.252Z,511.88
2018-06-28T11:24:03.949Z,511.88
2018-06-28T11:25:03.858Z,517.50
2018-06-28T11:26:56.729Z,511.88
2018-06-28T11:27:56.460Z,495.00
2018-06-28T11:29:49.165Z,478.13
2018-06-28T11:30:49.066Z,483.75
2018-06-28T11:32:41.782Z,517.50
2018-06-28T11:33:41.663Z,545.63
2018-06-28T11:35:34.370Z,585.00
2018-06-28T11:36:34.274Z,590.63
2018-06-28T11:38:26.984Z,624.38
2018-06-28T11:39:26.872Z,601.88
2018-06-28T11:41:19.568Z,534.38
2018-06-28T11:42:19.471Z,478.13
2018-06-28T11:44:12.289Z,433.13
2018-06-28T11:45:12.196Z,405.00
2018-06-28T11:47:05.185Z,438.75
2018-06-28T11:48:04.837Z,466.88
2018-06-28T11:49:57.561Z,461.25
2018-06-28T11:50:57.433Z,466.88
2018-06-28T11:52:50.129Z,483.75
2018-06-28T11:53:50.028Z,489.38
2018-06-28T11:55:42.734Z,500.63
2018-06-28T11:56:42.627Z,506.25
2018-06-28T11:58:35.319Z,495.00
2018-06-28T11:59:35.230Z,500.63
2018-06-28T12:01:27.945Z,517.50
2018-06-28T12:02:27.830Z,517.50
2018-06-28T12:04:20.533Z,511.88
2018-06-28T12:05:20.443Z,500.63
2018-06-28T12:07:13.146Z,500.63
2018-06-28T12:08:13.022Z,511.88
2018-06-28T12:10:05.727Z,545.63
2018-06-28T12:11:05.630Z,573.75
2018-06-28T12:12:58.346Z,607.50
2018-06-28T12:13:58.234Z,613.13
2018-06-28T12:15:51.107Z,624.38
2018-06-28T12:16:51.056Z,585.00
2018-06-28T12:18:43.549Z,540.00
2018-06-28T12:19:43.460Z,517.50
2018-06-28T12:21:36.194Z,528.75
2018-06-28T12:22:36.075Z,534.38
2018-06-28T12:24:28.907Z,556.88
2018-06-28T12:25:28.747Z,568.13
2018-06-28T12:27:21.462Z,630.00
2018-06-28T12:28:21.369Z,663.75
2018-06-28T12:30:14.116Z,759.38
2018-06-28T12:31:14.002Z,804.38
2018-06-28T12:33:06.739Z,675.00
2018-06-28T12:34:06.575Z,613.13
2018-06-28T12:35:59.295Z,483.75
2018-06-28T12:36:59.180Z,466.88
2018-06-28T12:38:51.897Z,455.63
2018-06-28T12:39:51.811Z,461.25
2018-06-28T12:41:44.747Z,523.13
2018-06-28T12:42:44.398Z,523.13
2018-06-28T12:44:37.643Z,528.75
2018-06-28T12:45:37.538Z,528.75
2018-06-28T12:47:30.329Z,511.88
2018-06-28T12:48:30.173Z,500.63
2018-06-28T12:50:22.865Z,483.75
2018-06-28T12:51:22.734Z,478.13
2018-06-28T12:53:15.499Z,461.25
2018-06-28T12:54:15.437Z,466.88
2018-06-28T12:56:08.172Z,483.75
2018-06-28T12:57:08.068Z,495.00
2018-06-28T12:59:00.719Z,551.25
2018-06-28T13:00:00.625Z,562.50
2018-06-28T13:01:53.417Z,613.13
2018-06-28T13:02:53.218Z,624.38
2018-06-28T13:04:45.966Z,697.50
2018-06-28T13:05:45.858Z,663.75
2018-06-28T13:07:38.575Z,573.75
2018-06-28T13:08:38.466Z,478.13
2018-06-28T13:10:31.208Z,455.63
2018-06-28T13:11:31.061Z,461.25
2018-06-28T13:13:23.806Z,472.50
2018-06-28T13:14:23.670Z,472.50
2018-06-28T13:16:16.563Z,489.38
2018-06-28T13:17:16.320Z,489.38
2018-06-28T13:19:09.075Z,506.25
2018-06-28T13:20:09.066Z,523.13
2018-06-28T13:22:01.871Z,607.50
2018-06-28T13:23:01.541Z,658.13
2018-06-28T13:24:54.243Z,669.38
2018-06-28T13:25:54.148Z,714.38
2018-06-28T13:27:46.950Z,708.75
2018-06-28T13:28:46.780Z,641.25
2018-06-28T13:30:39.467Z,607.50
2018-06-28T13:31:39.348Z,635.63
2018-06-28T13:33:32.628Z,517.50
2018-06-28T13:34:32.533Z,472.50
2018-06-28T13:36:25.298Z,410.63
2018-06-28T13:37:25.203Z,461.25
2018-06-28T13:39:17.991Z,461.25
2018-06-28T13:40:17.836Z,472.50
2018-06-28T13:42:10.706Z,495.00
2018-06-28T13:43:10.514Z,506.25
2018-06-28T13:45:03.282Z,551.25
2018-06-28T13:46:03.105Z,573.75
2018-06-28T13:47:55.910Z,663.75
2018-06-28T13:48:55.785Z,691.88
2018-06-28T13:50:48.477Z,585.00
2018-06-28T13:51:48.363Z,528.75
2018-06-28T13:53:41.059Z,455.63
2018-06-28T13:54:40.961Z,399.38
2018-06-28T13:56:33.819Z,376.88
2018-06-28T13:57:33.568Z,376.88
2018-06-28T13:59:26.253Z,410.63
2018-06-28T14:00:26.165Z,450.00
2018-06-28T14:02:18.873Z,450.00
2018-06-28T14:03:18.895Z,450.00
2018-06-28T14:05:11.455Z,483.75
2018-06-28T14:06:11.357Z,506.25
2018-06-28T14:08:04.086Z,562.50
2018-06-28T14:09:03.972Z,601.88
2018-06-28T14:10:56.671Z,708.75
2018-06-28T14:11:56.576Z,731.25
2018-06-28T14:13:49.298Z,703.13
2018-06-28T14:14:49.191Z,630.00
2018-06-28T14:16:41.891Z,511.88
2018-06-28T14:17:41.799Z,405.00
2018-06-28T14:19:34.515Z,461.25
2018-06-28T14:20:34.447Z,393.75
2018-06-28T14:22:27.109Z,405.00
2018-06-28T14:23:27.002Z,444.38
2018-06-28T14:25:19.719Z,483.75
2018-06-28T14:26:19.605Z,466.88
2018-06-28T14:28:12.331Z,461.25
2018-06-28T14:29:12.217Z,461.25
2018-06-28T14:31:04.905Z,466.88
2018-06-28T14:32:04.805Z,472.50
2018-06-28T14:33:57.533Z,472.50
2018-06-28T14:34:57.411Z,478.13
2018-06-28T14:36:50.119Z,495.00
2018-06-28T14:37:50.027Z,489.38
2018-06-28T14:39:42.765Z,483.75
2018-06-28T14:40:42.624Z,483.75
2018-06-28T14:42:35.326Z,466.88
2018-06-28T14:43:35.220Z,393.75
2018-06-28T14:45:27.938Z,421.88
2018-06-28T14:46:27.814Z,450.00
2018-06-28T14:48:20.516Z,483.75
2018-06-28T14:49:20.426Z,579.38
2018-06-28T14:51:13.141Z,618.75
2018-06-28T14:52:13.028Z,601.88
2018-06-28T14:54:05.727Z,562.50
2018-06-28T14:55:05.638Z,568.13
2018-06-28T14:56:58.367Z,540.00
2018-06-28T14:57:58.234Z,540.00
2018-06-28T14:59:50.933Z,489.38
2018-06-28T15:00:50.830Z,478.13
2018-06-28T15:02:43.551Z,472.50
2018-06-28T15:03:43.441Z,478.13
2018-06-28T15:05:36.153Z,506.25
2018-06-28T15:06:36.056Z,534.38
2018-06-28T15:08:28.771Z,562.50
2018-06-28T15:09:28.664Z,641.25
2018-06-28T15:11:21.350Z,624.38
2018-06-28T15:12:21.259Z,641.25
2018-06-28T15:14:13.983Z,630.00
2018-06-28T15:15:13.865Z,573.75
2018-06-28T15:17:06.566Z,523.13
2018-06-28T15:18:06.468Z,511.88
2018-06-28T15:19:59.192Z,455.63
2018-06-28T15:20:59.074Z,416.25
2018-06-28T15:22:51.770Z,360.00
2018-06-28T15:23:51.677Z,331.88
2018-06-28T15:25:44.392Z,388.13
2018-06-28T15:26:44.279Z,365.63
2018-06-28T15:28:36.978Z,393.75
2018-06-28T15:29:36.885Z,388.13
2018-06-28T15:31:29.605Z,450.00
2018-06-28T15:32:29.493Z,433.13
2018-06-28T15:34:22.186Z,337.50
2018-06-28T15:35:22.085Z,331.88
2018-06-28T15:37:14.821Z,382.50
2018-06-28T15:38:14.709Z,365.63
2018-06-28T15:40:07.424Z,343.13
2018-06-28T15:41:07.307Z,292.50
2018-06-28T15:42:59.997Z,281.25
2018-06-28T15:43:59.902Z,315.00
2018-06-28T15:45:52.844Z,326.25
2018-06-28T15:46:52.504Z,303.75
2018-06-28T15:48:45.197Z,315.00
2018-06-28T15:49:45.098Z,309.38
2018-06-28T15:51:37.818Z,320.63
2018-06-28T15:52:37.696Z,326.25
2018-06-28T15:54:30.397Z,309.38
2018-06-28T15:55:30.299Z,320.63
2018-06-28T15:57:23.017Z,331.88
2018-06-28T15:58:22.896Z,331.88
2018-06-28T16:00:15.612Z,331.88
2018-06-28T16:01:15.498Z,331.88
2018-06-28T16:03:08.187Z,343.13
2018-06-28T16:04:08.094Z,348.75
2018-06-28T16:06:00.810Z,348.75
2018-06-28T16:07:00.702Z,348.75
2018-06-28T16:08:53.387Z,348.75
2018-06-28T16:09:53.288Z,348.75
2018-06-28T16:11:46.006Z,348.75
2018-06-28T16:12:45.898Z,343.13
2018-06-28T16:14:38.588Z,343.13
2018-06-28T16:15:38.499Z,343.13
2018-06-28T16:17:31.208Z,343.13
2018-06-28T16:18:31.092Z,343.13
2018-06-28T16:20:23.813Z,343.13
2018-06-28T16:21:23.701Z,343.13
2018-06-28T16:23:16.401Z,343.13
2018-06-28T16:24:16.301Z,343.13
2018-06-28T16:26:09.016Z,343.13
2018-06-28T16:27:08.896Z,343.13
2018-06-28T16:29:01.597Z,331.88
2018-06-28T16:30:01.503Z,331.88
2018-06-28T16:31:54.217Z,331.88
2018-06-28T16:32:54.099Z,331.88
2018-06-28T16:34:46.797Z,331.88
2018-06-28T16:35:46.698Z,331.88
2018-06-28T16:37:39.416Z,331.88
2018-06-28T16:38:39.306Z,331.88
2018-06-28T16:40:32.657Z,331.88
2018-06-28T16:41:31.901Z,331.88
2018-06-28T16:43:24.603Z,331.88
2018-06-28T16:44:24.505Z,331.88
2018-06-28T16:46:17.288Z,331.88
2018-06-28T16:47:17.110Z,326.25
2018-06-28T16:49:10.194Z,326.25
2018-06-28T16:50:09.705Z,320.63
2018-06-28T16:52:02.416Z,320.63
2018-06-28T16:53:02.366Z,320.63
2018-06-28T16:54:55.006Z,315.00
2018-06-28T16:55:54.895Z,315.00
2018-06-28T16:57:47.757Z,315.00
2018-06-28T16:58:47.513Z,315.00
2018-06-28T17:00:40.210Z,315.00
2018-06-28T17:01:40.090Z,315.00
2018-06-28T17:03:32.801Z,315.00
2018-06-28T17:04:32.705Z,315.00
2018-06-28T17:06:25.411Z,309.38
2018-06-28T17:07:25.300Z,303.75
2018-06-28T17:09:18.005Z,298.13
2018-06-28T17:10:17.910Z,298.13
2018-06-28T17:12:10.761Z,298.13
2018-06-28T17:13:10.514Z,292.50
2018-06-28T17:15:03.219Z,286.88
2018-06-28T17:16:03.096Z,286.88
2018-06-28T17:17:55.790Z,286.88
2018-06-28T17:18:55.693Z,286.88
2018-06-28T17:20:48.419Z,281.25
2018-06-28T17:21:48.297Z,281.25
2018-06-28T17:23:41.492Z,275.63
2018-06-28T17:24:41.391Z,275.63
2018-06-28T17:26:34.105Z,275.63
2018-06-28T17:27:33.994Z,270.00
2018-06-28T17:29:26.687Z,270.00
2018-06-28T17:30:26.593Z,270.00
2018-06-28T17:32:19.301Z,264.38
2018-06-28T17:33:19.205Z,264.38
2018-06-28T17:35:11.907Z,264.38
2018-06-28T17:36:11.785Z,264.38
2018-06-28T17:38:04.481Z,258.75
2018-06-28T17:39:04.398Z,258.75
2018-06-28T17:40:57.243Z,258.75
2018-06-28T17:41:56.977Z,253.13
2018-06-28T17:43:49.693Z,253.13
2018-06-28T17:44:49.579Z,253.13
2018-06-28T17:46:42.332Z,247.50
2018-06-28T17:47:42.174Z,247.50
2018-06-28T17:49:34.894Z,247.50
2018-06-28T17:50:34.768Z,241.88
2018-06-28T17:52:27.480Z,241.88
2018-06-28T17:53:27.363Z,241.88
2018-06-28T17:55:20.086Z,236.25
2018-06-28T17:56:19.964Z,236.25
2018-06-28T17:58:12.664Z,241.88
2018-06-28T17:59:12.572Z,230.63
2018-06-28T18:01:05.435Z,230.63
2018-06-28T18:02:05.225Z,225.00
2018-06-28T18:03:57.917Z,225.00
2018-06-28T18:04:57.847Z,225.00
2018-06-28T18:06:50.547Z,219.38
2018-06-28T18:07:50.426Z,219.38
2018-06-28T18:09:43.138Z,219.38
2018-06-28T18:10:43.033Z,213.75
2018-06-28T18:12:35.752Z,213.75
2018-06-28T18:13:35.628Z,213.75
2018-06-28T18:15:28.331Z,208.13
2018-06-28T18:16:28.231Z,208.13
2018-06-28T18:18:20.911Z,202.50
2018-06-28T18:19:20.816Z,202.50
2018-06-28T18:21:13.530Z,202.50
2018-06-28T18:22:13.415Z,196.88
2018-06-28T18:24:06.099Z,196.88
2018-06-28T18:25:06.005Z,196.88
2018-06-28T18:26:58.719Z,191.25
2018-06-28T18:27:58.601Z,191.25
2018-06-28T18:29:51.307Z,185.63
2018-06-28T18:30:51.195Z,180.00
2018-06-28T18:32:43.887Z,174.38
2018-06-28T18:33:43.783Z,174.38
2018-06-28T18:35:36.505Z,168.75
2018-06-28T18:36:36.394Z,168.75
2018-06-28T18:38:29.114Z,163.13
2018-06-28T18:39:29.099Z,163.13
2018-06-28T18:41:21.706Z,157.50
2018-06-28T18:42:21.593Z,151.88
2018-06-28T18:44:14.286Z,146.25
2018-06-28T18:45:14.224Z,146.25
2018-06-28T18:47:06.899Z,140.63
2018-06-28T18:48:06.786Z,135.00
2018-06-28T18:49:59.500Z,129.38
2018-06-28T18:50:59.384Z,129.38
2018-06-28T18:52:52.079Z,123.75
2018-06-28T18:53:51.984Z,123.75
2018-06-28T18:55:44.686Z,118.13
2018-06-28T18:56:44.572Z,112.50
2018-06-28T18:58:37.260Z,118.13
2018-06-28T18:59:37.160Z,112.50
2018-06-28T19:01:29.876Z,106.88
2018-06-28T19:02:29.764Z,106.88
2018-06-28T19:04:22.461Z,101.25
2018-06-28T19:05:22.369Z,101.25
2018-06-28T19:07:15.071Z,95.63
2018-06-28T19:08:14.958Z,90.00
2018-06-28T19:10:07.798Z,90.00
2018-06-28T19:11:07.559Z,84.38
2018-06-28T19:13:00.249Z,78.75
2018-06-28T19:14:00.180Z,78.75
2018-06-28T19:15:52.867Z,73.13
2018-06-28T19:16:52.751Z,73.13
2018-06-28T19:18:45.443Z,67.50
2018-06-28T19:19:45.353Z,67.50
2018-06-28T19:21:38.064Z,61.88
2018-06-28T19:22:37.945Z,61.88
2018-06-28T19:24:30.637Z,56.25
2018-06-28T19:25:30.543Z,56.25
2018-06-28T19:27:23.257Z,50.63
2018-06-28T19:28:23.136Z,50.63
2018-06-28T19:30:15.852Z,45.00
2018-06-28T19:31:15.732Z,45.00
2018-06-28T19:33:08.435Z,39.38
2018-06-28T19:34:08.325Z,39.38
2018-06-28T19:36:01.041Z,33.75
2018-06-28T19:37:00.926Z,33.75
2018-06-28T19:38:53.611Z,33.75
2018-06-28T19:39:53.516Z,28.13
2018-06-28T19:41:46.368Z,28.13
2018-06-28T19:42:46.099Z,22.50
2018-06-28T19:44:38.797Z,22.50
2018-06-28T19:45:38.697Z,22.50
2018-06-28T19:47:31.402Z,16.88
2018-06-28T19:48:31.305Z,16.88
2018-06-28T19:50:23.976Z,16.88
2018-06-28T19:51:23.873Z,16.88
2018-06-28T19:53:16.653Z,11.25
2018-06-28T19:54:16.465Z,11.25
2018-06-28T19:56:09.156Z,11.25
2018-06-28T19:57:09.063Z,11.25
2018-06-28T19:59:01.772Z,5.63
2018-06-28T20:00:01.656Z,5.63
2018-06-28T20:01:54.388Z,5.63
2018-06-28T20:02:54.265Z,5.63
2018-06-28T20:04:46.955Z,5.63
2018-06-28T20:05:46.860Z,5.63
2018-06-28T20:07:39.575Z,0.00
2018-06-28T20:08:39.456Z,0.00
2018-06-28T20:10:32.180Z,0.00
2018-06-28T20:11:32.047Z,0.00
2018-06-28T20:13:24.757Z,0.00
2018-06-28T20:14:24.635Z,0.00
2018-06-28T20:16:17.372Z,0.00
2018-06-28T20:17:17.228Z,0.00
2018-06-28T20:19:09.950Z,0.00
2018-06-28T20:20:09.826Z,0.00
2018-06-28T20:22:02.532Z,0.00
2018-06-28T20:23:02.419Z,0.00
2018-06-28T20:24:55.169Z,0.00
2018-06-28T20:25:55.063Z,0.00
2018-06-28T20:27:47.780Z,0.00
2018-06-28T20:28:47.656Z,0.00
2018-06-28T20:30:40.839Z,0.00
2018-06-28T20:31:40.736Z,0.00
2018-06-28T20:33:33.636Z,0.00
2018-06-28T20:34:33.518Z,0.00
2018-06-28T20:36:26.202Z,0.00
2018-06-28T20:37:26.102Z,0.00
2018-06-28T20:39:18.815Z,0.00
2018-06-28T20:40:18.693Z,0.00
2018-06-28T20:42:11.378Z,0.00
2018-06-28T20:43:11.284Z,0.00
2018-06-28T20:45:04.048Z,0.00
2018-06-28T20:46:03.876Z,0.00
2018-06-28T20:47:56.562Z,0.00
2018-06-28T20:48:56.464Z,0.00
2018-06-28T20:50:49.183Z,0.00
2018-06-28T20:51:49.048Z,0.00
2018-06-28T20:53:41.737Z,0.00
2018-06-28T20:54:41.636Z,0.00
2018-06-28T20:56:34.340Z,0.00
2018-06-28T20:57:34.225Z,0.00
2018-06-28T20:59:26.911Z,0.00
2018-06-28T21:00:26.812Z,0.00
2018-06-28T21:02:19.524Z,0.00
2018-06-28T21:03:19.393Z,0.00
2018-06-28T21:05:12.091Z,0.00
2018-06-28T21:06:11.982Z,0.00
2018-06-28T21:08:04.690Z,0.00
2018-06-28T21:09:04.621Z,0.00
2018-06-28T21:10:57.504Z,0.00
2018-06-28T21:11:57.161Z,0.00
2018-06-28T21:13:49.913Z,0.00
2018-06-28T21:14:49.747Z,0.00
2018-06-28T21:16:42.445Z,0.00
2018-06-28T21:17:42.345Z,0.00
2018-06-28T21:19:35.056Z,0.00
2018-06-28T21:20:34.931Z,0.00
2018-06-28T21:22:27.615Z,0.00
2018-06-28T21:23:27.515Z,0.00
2018-06-28T21:25:20.238Z,0.00
2018-06-28T21:26:20.110Z,0.00
2018-06-28T21:28:12.801Z,0.00
2018-06-28T21:29:12.699Z,0.00
2018-06-28T21:31:05.405Z,0.00
2018-06-28T21:32:05.279Z,0.00
2018-06-28T21:33:57.961Z,0.00
2018-06-28T21:34:57.862Z,0.00
2018-06-28T21:36:50.574Z,0.00
2018-06-28T21:37:50.608Z,0.00
2018-06-28T21:39:43.483Z,0.00
2018-06-28T21:40:43.042Z,0.00
2018-06-28T21:42:35.754Z,0.00
2018-06-28T21:43:35.627Z,0.00
2018-06-28T21:45:28.313Z,0.00
2018-06-28T21:46:28.211Z,0.00
2018-06-28T21:48:20.960Z,0.00
2018-06-28T21:49:20.807Z,0.00
2018-06-28T21:51:13.488Z,0.00
2018-06-28T21:52:13.391Z,0.00
2018-06-28T21:54:06.104Z,0.00
2018-06-28T21:55:05.977Z,0.00
2018-06-28T21:56:58.813Z,0.00
2018-06-28T21:57:58.560Z,0.00
2018-06-28T21:59:51.269Z,0.00
